METAR Data
IDs: Format: Raw Decoded Include TAF

Data at: 2058 UTC 01 Dec 2021

METAR for:KSGH (Springfield Muni, OH, US)
Text:KSGH 012056Z AUTO 13010KT 8SM RA SCT035 BKN060 OVC070 06/06 A2989 RMK AO2 RAB45 SLP132 6//// T00610061 56041 PNO $
Temperature: 6.1°C ( 43°F)
Dewpoint: 6.1°C ( 43°F) [RH = 100%]
Pressure (altimeter):29.89 inches Hg (1012.3 mb) [Sea level pressure: 1013.2 mb]
Winds:from the SE (130 degrees) at 12 MPH (10 knots; 5.1 m/s)
Visibility: 8 sm ( 13 km)
Ceiling:6000 feet AGL
Clouds: scattered clouds at 3500 feet AGL, broken clouds at 6000 feet AGL, overcast cloud deck at 7000 feet AGL
Weather:RA (moderate rain)
QC Flag:automated observation with no human augmentation; SOME DATA ABOVE MAY BE INACCURATE!!!"$" is an indication the sensor requires maintenance.